sensor_id;sensor_type;location;lat;lon;timestamp;pressure;altitude;pressure_sealevel;temperature;humidity
64025;BME280;50266;57.446;26.936;2023-02-28T00:00:22;100133.69;;;-3.91;100.0
64025;BME280;50266;57.446;26.936;2023-02-28T00:01:22;100134.56;;;-3.88;100.0
64025;BME280;50266;57.446;26.936;2023-02-28T00:02:22;100132.47;;;-3.81;100.0
64025;BME280;50266;57.446;26.936;2023-02-28T00:03:22;100136.27;;;-3.78;100.0
64025;BME280;50266;57.446;26.936;2023-02-28T00:04:22;100140.82;;;-3.74;100.0
64025;BME280;50266;57.446;26.936;2023-02-28T00:05:23;100140.71;;;-3.74;100.0
64025;BME280;50266;57.446;26.936;2023-02-28T00:06:22;100139.77;;;-3.69;100.0
64025;BME280;50266;57.446;26.936;2023-02-28T00:07:22;100136.25;;;-3.72;100.0
64025;BME280;50266;57.446;26.936;2023-02-28T00:08:22;100139.69;;;-3.74;100.0
64025;BME280;50266;57.446;26.936;2023-02-28T00:09:22;100142.64;;;-3.69;100.0
64025;BME280;50266;57.446;26.936;2023-02-28T00:10:24;100136.8;;;-3.66;100.0
64025;BME280;50266;57.446;26.936;2023-02-28T00:11:22;100138.27;;;-3.66;100.0
64025;BME280;50266;57.446;26.936;2023-02-28T00:12:22;100126.31;;;-3.64;100.0
64025;BME280;50266;57.446;26.936;2023-02-28T00:13:22;100130.44;;;-3.56;100.0
64025;BME280;50266;57.446;26.936;2023-02-28T00:14:22;100126.64;;;-3.59;100.0
64025;BME280;50266;57.446;26.936;2023-02-28T00:15:22;100129.25;;;-3.56;100.0
64025;BME280;50266;57.446;26.936;2023-02-28T00:16:22;100125.03;;;-3.53;100.0
64025;BME280;50266;57.446;26.936;2023-02-28T00:17:22;100120.83;;;-3.49;100.0
64025;BME280;50266;57.446;26.936;2023-02-28T00:18:22;100118.72;;;-3.49;100.0
64025;BME280;50266;57.446;26.936;2023-02-28T00:19:22;100121.43;;;-3.49;100.0
64025;BME280;50266;57.446;26.936;2023-02-28T00:20:23;100114.99;;;-3.46;100.0
64025;BME280;50266;57.446;26.936;2023-02-28T00:21:22;100109.62;;;-3.47;100.0
64025;BME280;50266;57.446;26.936;2023-02-28T00:22:22;100113.42;;;-3.38;100.0
64025;BME280;50266;57.446;26.936;2023-02-28T00:23:22;100108.66;;;-3.39;100.0
64025;BME280;50266;57.446;26.936;2023-02-28T00:24:22;100107.31;;;-3.35;100.0
64025;BME280;50266;57.446;26.936;2023-02-28T00:25:24;100112.34;;;-3.36;100.0
64025;BME280;50266;57.446;26.936;2023-02-28T00:26:22;100112.84;;;-3.34;100.0
64025;BME280;50266;57.446;26.936;2023-02-28T00:27:22;100116.95;;;-3.33;100.0
64025;BME280;50266;57.446;26.936;2023-02-28T00:28:22;100115.48;;;-3.36;100.0
64025;BME280;50266;57.446;26.936;2023-02-28T00:29:22;100117.92;;;-3.36;100.0
64025;BME280;50266;57.446;26.936;2023-02-28T00:30:22;100108.98;;;-3.39;100.0
64025;BME280;50266;57.446;26.936;2023-02-28T00:31:22;100107.36;;;-3.36;100.0
64025;BME280;50266;57.446;26.936;2023-02-28T00:32:22;100108.39;;;-3.37;100.0
64025;BME280;50266;57.446;26.936;2023-02-28T00:33:23;100113.64;;;-3.38;100.0
64025;BME280;50266;57.446;26.936;2023-02-28T00:34:22;100105.52;;;-3.39;100.0
64025;BME280;50266;57.446;26.936;2023-02-28T00:35:22;100108.77;;;-3.38;100.0
64025;BME280;50266;57.446;26.936;2023-02-28T00:36:22;100104.82;;;-3.4;100.0
64025;BME280;50266;57.446;26.936;2023-02-28T00:37:23;100104.33;;;-3.39;100.0
64025;BME280;50266;57.446;26.936;2023-02-28T00:38:23;100098.38;;;-3.38;100.0
64025;BME280;50266;57.446;26.936;2023-02-28T00:39:23;100102.38;;;-3.38;100.0
64025;BME280;50266;57.446;26.936;2023-02-28T00:40:23;100104.33;;;-3.4;100.0
64025;BME280;50266;57.446;26.936;2023-02-28T00:41:23;100104.22;;;-3.37;100.0
64025;BME280;50266;57.446;26.936;2023-02-28T00:42:23;100096.32;;;-3.33;100.0
64025;BME280;50266;57.446;26.936;2023-02-28T00:43:23;100093.18;;;-3.36;100.0
64025;BME280;50266;57.446;26.936;2023-02-28T00:44:23;100087.61;;;-3.37;100.0
64025;BME280;50266;57.446;26.936;2023-02-28T00:45:23;100088.25;;;-3.37;100.0
64025;BME280;50266;57.446;26.936;2023-02-28T00:46:23;100089.02;;;-3.38;100.0
64025;BME280;50266;57.446;26.936;2023-02-28T00:47:23;100095.83;;;-3.35;100.0
64025;BME280;50266;57.446;26.936;2023-02-28T00:48:23;100087.88;;;-3.36;100.0
64025;BME280;50266;57.446;26.936;2023-02-28T00:49:23;100088.52;;;-3.33;100.0
64025;BME280;50266;57.446;26.936;2023-02-28T00:50:23;100090.26;;;-3.32;100.0
64025;BME280;50266;57.446;26.936;2023-02-28T00:51:23;100086.05;;;-3.28;100.0
64025;BME280;50266;57.446;26.936;2023-02-28T00:52:23;100080.97;;;-3.25;100.0
64025;BME280;50266;57.446;26.936;2023-02-28T00:53:23;100078.74;;;-3.26;100.0
64025;BME280;50266;57.446;26.936;2023-02-28T00:54:23;100081.34;;;-3.26;100.0
64025;BME280;50266;57.446;26.936;2023-02-28T00:55:23;100071.92;;;-3.27;100.0
64025;BME280;50266;57.446;26.936;2023-02-28T00:56:23;100070.25;;;-3.29;100.0
64025;BME280;50266;57.446;26.936;2023-02-28T00:57:23;100069.38;;;-3.3;100.0
64025;BME280;50266;57.446;26.936;2023-02-28T00:58:23;100075.06;;;-3.3;100.0
64025;BME280;50266;57.446;26.936;2023-02-28T00:59:23;100070.03;;;-3.26;100.0
64025;BME280;50266;57.446;26.936;2023-02-28T01:00:23;100071.22;;;-3.26;100.0
64025;BME280;50266;57.446;26.936;2023-02-28T01:01:23;100071.55;;;-3.25;100.0
64025;BME280;50266;57.446;26.936;2023-02-28T01:02:23;100069.27;;;-3.22;100.0
64025;BME280;50266;57.446;26.936;2023-02-28T01:03:23;100068.89;;;-3.25;100.0
64025;BME280;50266;57.446;26.936;2023-02-28T01:04:23;100071.05;;;-3.25;100.0
64025;BME280;50266;57.446;26.936;2023-02-28T01:05:23;100079.23;;;-3.22;100.0
64025;BME280;50266;57.446;26.936;2023-02-28T01:06:23;100072.14;;;-3.21;100.0
64025;BME280;50266;57.446;26.936;2023-02-28T01:07:23;100071.48;;;-3.19;100.0
64025;BME280;50266;57.446;26.936;2023-02-28T01:08:23;100066.45;;;-3.21;100.0
64025;BME280;50266;57.446;26.936;2023-02-28T01:09:23;100065.63;;;-3.15;100.0
64025;BME280;50266;57.446;26.936;2023-02-28T01:10:23;100066.83;;;-3.16;100.0
64025;BME280;50266;57.446;26.936;2023-02-28T01:11:23;100067.53;;;-3.18;100.0
64025;BME280;50266;57.446;26.936;2023-02-28T01:12:23;100064.72;;;-3.18;100.0
64025;BME280;50266;57.446;26.936;2023-02-28T01:13:23;100063.3;;;-3.17;100.0
64025;BME280;50266;57.446;26.936;2023-02-28T01:14:23;100061.25;;;-3.16;100.0
64025;BME280;50266;57.446;26.936;2023-02-28T01:15:23;100064.01;;;-3.18;100.0
64025;BME280;50266;57.446;26.936;2023-02-28T01:16:23;100063.58;;;-3.16;100.0
64025;BME280;50266;57.446;26.936;2023-02-28T01:17:23;100057.42;;;-3.11;100.0
64025;BME280;50266;57.446;26.936;2023-02-28T01:18:23;100058.97;;;-3.12;100.0
64025;BME280;50266;57.446;26.936;2023-02-28T01:19:23;100052.42;;;-3.07;100.0
64025;BME280;50266;57.446;26.936;2023-02-28T01:20:23;100056.17;;;-3.08;100.0
64025;BME280;50266;57.446;26.936;2023-02-28T01:21:24;100053.45;;;-3.09;100.0
64025;BME280;50266;57.446;26.936;2023-02-28T01:22:23;100063.16;;;-3.08;100.0
64025;BME280;50266;57.446;26.936;2023-02-28T01:23:23;100056.64;;;-3.02;100.0
64025;BME280;50266;57.446;26.936;2023-02-28T01:24:23;100064.88;;;-3.04;100.0
64025;BME280;50266;57.446;26.936;2023-02-28T01:25:23;100057.52;;;-3.03;100.0
64025;BME280;50266;57.446;26.936;2023-02-28T01:26:23;100057.46;;;-3.04;100.0
64025;BME280;50266;57.446;26.936;2023-02-28T01:27:23;100058.27;;;-3.0;100.0
64025;BME280;50266;57.446;26.936;2023-02-28T01:28:23;100057.83;;;-2.97;100.0
64025;BME280;50266;57.446;26.936;2023-02-28T01:29:23;100058.91;;;-2.97;100.0
64025;BME280;50266;57.446;26.936;2023-02-28T01:30:23;100059.77;;;-2.96;100.0
64025;BME280;50266;57.446;26.936;2023-02-28T01:31:23;100060.64;;;-2.95;100.0
64025;BME280;50266;57.446;26.936;2023-02-28T01:32:23;100064.48;;;-2.93;100.0
64025;BME280;50266;57.446;26.936;2023-02-28T01:33:23;100063.41;;;-2.95;100.0
64025;BME280;50266;57.446;26.936;2023-02-28T01:34:23;100063.34;;;-2.94;100.0
64025;BME280;50266;57.446;26.936;2023-02-28T01:35:23;100060.26;;;-2.94;100.0
64025;BME280;50266;57.446;26.936;2023-02-28T01:36:24;100063.23;;;-2.9;100.0
64025;BME280;50266;57.446;26.936;2023-02-28T01:37:23;100055.92;;;-2.91;100.0
64025;BME280;50266;57.446;26.936;2023-02-28T01:38:23;100053.91;;;-2.91;100.0
64025;BME280;50266;57.446;26.936;2023-02-28T01:39:23;100046.55;;;-2.94;100.0
64025;BME280;50266;57.446;26.936;2023-02-28T01:40:23;100042.43;;;-2.91;100.0
64025;BME280;50266;57.446;26.936;2023-02-28T01:41:24;100041.58;;;-2.88;100.0
64025;BME280;50266;57.446;26.936;2023-02-28T01:42:23;100037.89;;;-2.86;100.0
64025;BME280;50266;57.446;26.936;2023-02-28T01:43:25;100037.95;;;-2.88;100.0
64025;BME280;50266;57.446;26.936;2023-02-28T01:45:29;100031.69;;;-2.8;100.0
64025;BME280;50266;57.446;26.936;2023-02-28T01:46:29;100034.0;;;-2.74;100.0
64025;BME280;50266;57.446;26.936;2023-02-28T01:47:32;100025.38;;;-2.69;100.0
64025;BME280;50266;57.446;26.936;2023-02-28T01:48:31;100026.25;;;-2.66;100.0
64025;BME280;50266;57.446;26.936;2023-02-28T01:49:30;100024.93;;;-2.61;100.0
64025;BME280;50266;57.446;26.936;2023-02-28T01:50:31;100027.98;;;-2.53;100.0
64025;BME280;50266;57.446;26.936;2023-02-28T01:52:32;100029.5;;;-2.47;100.0
64025;BME280;50266;57.446;26.936;2023-02-28T01:53:33;100025.41;;;-2.42;100.0
64025;BME280;50266;57.446;26.936;2023-02-28T01:54:33;100023.51;;;-2.4;100.0
64025;BME280;50266;57.446;26.936;2023-02-28T01:55:32;100029.33;;;-2.33;100.0
64025;BME280;50266;57.446;26.936;2023-02-28T01:56:33;100027.91;;;-2.27;100.0
64025;BME280;50266;57.446;26.936;2023-02-28T01:57:33;100029.2;;;-2.26;100.0
64025;BME280;50266;57.446;26.936;2023-02-28T01:58:32;100023.28;;;-2.24;100.0
64025;BME280;50266;57.446;26.936;2023-02-28T01:59:36;100027.19;;;-2.23;100.0
64025;BME280;50266;57.446;26.936;2023-02-28T02:00:33;100025.81;;;-2.2;100.0
64025;BME280;50266;57.446;26.936;2023-02-28T02:01:33;100022.98;;;-2.19;100.0
64025;BME280;50266;57.446;26.936;2023-02-28T02:02:33;100026.67;;;-2.19;100.0
64025;BME280;50266;57.446;26.936;2023-02-28T02:03:33;100028.12;;;-2.15;100.0
64025;BME280;50266;57.446;26.936;2023-02-28T02:04:37;100026.73;;;-2.1;100.0
64025;BME280;50266;57.446;26.936;2023-02-28T02:05:35;100027.56;;;-2.13;100.0
64025;BME280;50266;57.446;26.936;2023-02-28T02:06:39;100031.69;;;-2.12;100.0
64025;BME280;50266;57.446;26.936;2023-02-28T02:07:37;100019.62;;;-2.11;100.0
64025;BME280;50266;57.446;26.936;2023-02-28T02:08:36;100025.36;;;-2.08;100.0
64025;BME280;50266;57.446;26.936;2023-02-28T02:09:36;100022.33;;;-2.05;100.0
64025;BME280;50266;57.446;26.936;2023-02-28T02:10:39;100021.07;;;-2.03;100.0
64025;BME280;50266;57.446;26.936;2023-02-28T02:11:36;100024.69;;;-2.0;100.0
64025;BME280;50266;57.446;26.936;2023-02-28T02:13:48;100019.85;;;-1.99;100.0
64025;BME280;50266;57.446;26.936;2023-02-28T02:14:48;100018.8;;;-1.96;100.0
64025;BME280;50266;57.446;26.936;2023-02-28T02:17:05;100022.25;;;-1.92;100.0
64025;BME280;50266;57.446;26.936;2023-02-28T02:17:49;100017.57;;;-1.9;100.0
64025;BME280;50266;57.446;26.936;2023-02-28T02:18:52;100015.89;;;-1.91;100.0
64025;BME280;50266;57.446;26.936;2023-02-28T02:20:59;100010.41;;;-1.89;100.0
64025;BME280;50266;57.446;26.936;2023-02-28T02:22:19;100012.23;;;-1.87;100.0
64025;BME280;50266;57.446;26.936;2023-02-28T02:28:20;99993.97;;;-1.74;100.0
64025;BME280;50266;57.446;26.936;2023-02-28T02:31:32;99982.19;;;-1.74;100.0
64025;BME280;50266;57.446;26.936;2023-02-28T02:32:35;99986.61;;;-1.7;100.0
64025;BME280;50266;57.446;26.936;2023-02-28T02:34:47;99979.94;;;-1.61;100.0
64025;BME280;50266;57.446;26.936;2023-02-28T02:35:45;99977.95;;;-1.66;100.0
64025;BME280;50266;57.446;26.936;2023-02-28T02:37:01;99977.23;;;-1.62;100.0
64025;BME280;50266;57.446;26.936;2023-02-28T02:37:57;99975.98;;;-1.62;100.0
64025;BME280;50266;57.446;26.936;2023-02-28T02:38:47;99964.24;;;-1.61;100.0
64025;BME280;50266;57.446;26.936;2023-02-28T02:40:00;99971.89;;;-1.6;100.0
64025;BME280;50266;57.446;26.936;2023-02-28T02:40:58;99963.09;;;-1.6;100.0
64025;BME280;50266;57.446;26.936;2023-02-28T02:41:54;99968.77;;;-1.57;100.0
64025;BME280;50266;57.446;26.936;2023-02-28T02:42:55;99967.45;;;-1.56;100.0
64025;BME280;50266;57.446;26.936;2023-02-28T02:44:02;99961.89;;;-1.52;100.0
64025;BME280;50266;57.446;26.936;2023-02-28T02:45:01;99971.87;;;-1.51;100.0
64025;BME280;50266;57.446;26.936;2023-02-28T02:45:59;99963.16;;;-1.49;100.0
64025;BME280;50266;57.446;26.936;2023-02-28T02:47:09;99963.44;;;-1.49;100.0
64025;BME280;50266;57.446;26.936;2023-02-28T02:48:05;99961.2;;;-1.49;100.0
64025;BME280;50266;57.446;26.936;2023-02-28T02:49:04;99961.16;;;-1.42;100.0
64025;BME280;50266;57.446;26.936;2023-02-28T02:50:05;99952.77;;;-1.39;100.0
64025;BME280;50266;57.446;26.936;2023-02-28T02:51:04;99961.17;;;-1.43;100.0
64025;BME280;50266;57.446;26.936;2023-02-28T02:52:04;99953.11;;;-1.4;100.0
64025;BME280;50266;57.446;26.936;2023-02-28T02:53:03;99946.67;;;-1.38;100.0
64025;BME280;50266;57.446;26.936;2023-02-28T02:54:11;99956.77;;;-1.38;100.0
64025;BME280;50266;57.446;26.936;2023-02-28T02:55:04;99946.28;;;-1.37;100.0
64025;BME280;50266;57.446;26.936;2023-02-28T02:56:04;99939.89;;;-1.34;100.0
64025;BME280;50266;57.446;26.936;2023-02-28T02:57:15;99937.15;;;-1.36;100.0
64025;BME280;50266;57.446;26.936;2023-02-28T02:58:10;99932.61;;;-1.33;100.0
64025;BME280;50266;57.446;26.936;2023-02-28T02:59:11;99935.66;;;-1.33;100.0
64025;BME280;50266;57.446;26.936;2023-02-28T03:00:10;99931.7;;;-1.29;100.0
64025;BME280;50266;57.446;26.936;2023-02-28T03:01:14;99929.23;;;-1.28;100.0
64025;BME280;50266;57.446;26.936;2023-02-28T03:02:14;99930.23;;;-1.28;100.0
64025;BME280;50266;57.446;26.936;2023-02-28T03:03:13;99922.11;;;-1.26;100.0
64025;BME280;50266;57.446;26.936;2023-02-28T03:04:15;99920.89;;;-1.25;100.0
64025;BME280;50266;57.446;26.936;2023-02-28T03:06:15;99932.36;;;-1.25;100.0
64025;BME280;50266;57.446;26.936;2023-02-28T03:07:15;99934.37;;;-1.24;100.0
64025;BME280;50266;57.446;26.936;2023-02-28T03:08:15;99910.96;;;-1.23;100.0
64025;BME280;50266;57.446;26.936;2023-02-28T03:09:15;99903.39;;;-1.17;100.0
64025;BME280;50266;57.446;26.936;2023-02-28T03:11:18;99899.12;;;-1.18;100.0
64025;BME280;50266;57.446;26.936;2023-02-28T03:12:19;99897.36;;;-1.16;100.0
64025;BME280;50266;57.446;26.936;2023-02-28T03:13:34;99902.28;;;-1.15;100.0
64025;BME280;50266;57.446;26.936;2023-02-28T03:15:26;99891.64;;;-1.16;100.0
64025;BME280;50266;57.446;26.936;2023-02-28T03:17:30;99890.72;;;-1.11;100.0
64025;BME280;50266;57.446;26.936;2023-02-28T03:18:32;99895.69;;;-1.09;100.0
64025;BME280;50266;57.446;26.936;2023-02-28T03:20:35;99888.81;;;-1.11;100.0
64025;BME280;50266;57.446;26.936;2023-02-28T03:23:43;99898.38;;;-1.07;100.0
64025;BME280;50266;57.446;26.936;2023-02-28T03:26:50;99882.61;;;-1.05;100.0
64025;BME280;50266;57.446;26.936;2023-02-28T03:28:10;99879.52;;;-1.07;100.0
64025;BME280;50266;57.446;26.936;2023-02-28T03:29:56;99878.42;;;-0.99;100.0
64025;BME280;50266;57.446;26.936;2023-02-28T03:30:56;99872.17;;;-1.0;100.0
64025;BME280;50266;57.446;26.936;2023-02-28T03:32:04;99872.91;;;-1.01;100.0
64025;BME280;50266;57.446;26.936;2023-02-28T03:34:09;99866.75;;;-0.96;100.0
64025;BME280;50266;57.446;26.936;2023-02-28T03:35:09;99854.75;;;-0.97;100.0
64025;BME280;50266;57.446;26.936;2023-02-28T03:36:10;99866.04;;;-1.0;100.0
64025;BME280;50266;57.446;26.936;2023-02-28T03:37:10;99859.7;;;-0.97;100.0
64025;BME280;50266;57.446;26.936;2023-02-28T03:38:16;99857.54;;;-0.94;100.0
64025;BME280;50266;57.446;26.936;2023-02-28T03:39:17;99856.03;;;-0.95;100.0
64025;BME280;50266;57.446;26.936;2023-02-28T03:40:14;99855.08;;;-0.93;100.0
64025;BME280;50266;57.446;26.936;2023-02-28T03:41:16;99848.16;;;-0.92;100.0
64025;BME280;50266;57.446;26.936;2023-02-28T03:43:14;99849.21;;;-0.89;100.0
64025;BME280;50266;57.446;26.936;2023-02-28T03:44:18;99849.68;;;-0.88;100.0
64025;BME280;50266;57.446;26.936;2023-02-28T03:45:21;99840.76;;;-0.87;100.0
64025;BME280;50266;57.446;26.936;2023-02-28T03:46:21;99845.05;;;-0.87;100.0
64025;BME280;50266;57.446;26.936;2023-02-28T03:47:24;99841.62;;;-0.87;100.0
64025;BME280;50266;57.446;26.936;2023-02-28T03:48:28;99842.93;;;-0.83;100.0
64025;BME280;50266;57.446;26.936;2023-02-28T03:49:27;99830.64;;;-0.81;100.0
64025;BME280;50266;57.446;26.936;2023-02-28T03:50:27;99814.38;;;-0.82;100.0
64025;BME280;50266;57.446;26.936;2023-02-28T03:51:26;99827.0;;;-0.83;100.0
64025;BME280;50266;57.446;26.936;2023-02-28T03:52:27;99817.6;;;-0.83;100.0
64025;BME280;50266;57.446;26.936;2023-02-28T03:53:36;99815.76;;;-0.82;100.0
64025;BME280;50266;57.446;26.936;2023-02-28T03:54:30;99817.59;;;-0.81;100.0
64025;BME280;50266;57.446;26.936;2023-02-28T03:55:29;99824.88;;;-0.78;100.0
64025;BME280;50266;57.446;26.936;2023-02-28T03:56:33;99822.05;;;-0.77;100.0
64025;BME280;50266;57.446;26.936;2023-02-28T03:57:47;99826.05;;;-0.76;100.0
64025;BME280;50266;57.446;26.936;2023-02-28T03:58:41;99821.47;;;-0.75;100.0
64025;BME280;50266;57.446;26.936;2023-02-28T03:59:36;99821.23;;;-0.73;100.0
64025;BME280;50266;57.446;26.936;2023-02-28T04:00:35;99826.73;;;-0.71;100.0
64025;BME280;50266;57.446;26.936;2023-02-28T04:01:44;99813.0;;;-0.72;100.0
64025;BME280;50266;57.446;26.936;2023-02-28T04:02:36;99814.67;;;-0.71;100.0
64025;BME280;50266;57.446;26.936;2023-02-28T04:03:36;99822.12;;;-0.68;100.0
64025;BME280;50266;57.446;26.936;2023-02-28T04:04:36;99823.91;;;-0.63;100.0
64025;BME280;50266;57.446;26.936;2023-02-28T04:06:37;99810.3;;;-0.61;100.0
64025;BME280;50266;57.446;26.936;2023-02-28T04:07:36;99814.84;;;-0.64;100.0
64025;BME280;50266;57.446;26.936;2023-02-28T04:08:36;99807.4;;;-0.65;100.0
64025;BME280;50266;57.446;26.936;2023-02-28T04:09:37;99812.97;;;-0.63;100.0
64025;BME280;50266;57.446;26.936;2023-02-28T04:10:36;99808.27;;;-0.59;100.0
64025;BME280;50266;57.446;26.936;2023-02-28T04:11:38;99823.7;;;-0.59;100.0
64025;BME280;50266;57.446;26.936;2023-02-28T04:12:37;99808.79;;;-0.55;100.0
64025;BME280;50266;57.446;26.936;2023-02-28T04:13:37;99805.42;;;-0.55;100.0
64025;BME280;50266;57.446;26.936;2023-02-28T04:14:37;99804.03;;;-0.57;100.0
64025;BME280;50266;57.446;26.936;2023-02-28T04:15:37;99815.39;;;-0.56;100.0
64025;BME280;50266;57.446;26.936;2023-02-28T04:16:38;99811.97;;;-0.56;100.0
64025;BME280;50266;57.446;26.936;2023-02-28T04:17:37;99817.41;;;-0.56;100.0
64025;BME280;50266;57.446;26.936;2023-02-28T04:18:37;99806.41;;;-0.56;100.0
64025;BME280;50266;57.446;26.936;2023-02-28T04:19:37;99820.92;;;-0.55;100.0
64025;BME280;50266;57.446;26.936;2023-02-28T04:20:37;99796.55;;;-0.55;100.0
64025;BME280;50266;57.446;26.936;2023-02-28T04:21:37;99797.15;;;-0.54;100.0
64025;BME280;50266;57.446;26.936;2023-02-28T04:22:37;99801.06;;;-0.54;100.0
64025;BME280;50266;57.446;26.936;2023-02-28T04:23:37;99797.05;;;-0.52;100.0
64025;BME280;50266;57.446;26.936;2023-02-28T04:24:37;99800.27;;;-0.52;100.0
64025;BME280;50266;57.446;26.936;2023-02-28T04:25:37;99809.88;;;-0.52;100.0
64025;BME280;50266;57.446;26.936;2023-02-28T04:26:37;99819.56;;;-0.51;100.0
64025;BME280;50266;57.446;26.936;2023-02-28T04:27:37;99808.03;;;-0.48;100.0
64025;BME280;50266;57.446;26.936;2023-02-28T04:28:37;99801.3;;;-0.49;100.0
64025;BME280;50266;57.446;26.936;2023-02-28T04:29:37;99800.41;;;-0.51;100.0
64025;BME280;50266;57.446;26.936;2023-02-28T04:30:37;99794.02;;;-0.49;100.0
64025;BME280;50266;57.446;26.936;2023-02-28T04:31:37;99799.6;;;-0.48;100.0
64025;BME280;50266;57.446;26.936;2023-02-28T04:32:37;99799.83;;;-0.45;100.0
64025;BME280;50266;57.446;26.936;2023-02-28T04:33:37;99797.78;;;-0.43;100.0
64025;BME280;50266;57.446;26.936;2023-02-28T04:34:37;99810.65;;;-0.41;100.0
64025;BME280;50266;57.446;26.936;2023-02-28T04:35:37;99804.25;;;-0.43;100.0
64025;BME280;50266;57.446;26.936;2023-02-28T04:36:37;99791.92;;;-0.44;100.0
64025;BME280;50266;57.446;26.936;2023-02-28T04:37:37;99800.67;;;-0.43;100.0
64025;BME280;50266;57.446;26.936;2023-02-28T04:38:38;99787.86;;;-0.42;100.0
64025;BME280;50266;57.446;26.936;2023-02-28T04:39:37;99805.47;;;-0.4;100.0
64025;BME280;50266;57.446;26.936;2023-02-28T04:40:37;99802.03;;;-0.35;100.0
64025;BME280;50266;57.446;26.936;2023-02-28T04:41:37;99799.69;;;-0.35;100.0
64025;BME280;50266;57.446;26.936;2023-02-28T04:42:37;99796.48;;;-0.35;100.0
64025;BME280;50266;57.446;26.936;2023-02-28T04:43:37;99793.66;;;-0.36;100.0
64025;BME280;50266;57.446;26.936;2023-02-28T04:44:37;99796.38;;;-0.36;100.0
64025;BME280;50266;57.446;26.936;2023-02-28T04:45:37;99785.39;;;-0.39;100.0
64025;BME280;50266;57.446;26.936;2023-02-28T04:46:37;99787.23;;;-0.36;100.0
64025;BME280;50266;57.446;26.936;2023-02-28T04:47:37;99786.25;;;-0.32;100.0
64025;BME280;50266;57.446;26.936;2023-02-28T04:48:38;99792.31;;;-0.34;100.0
64025;BME280;50266;57.446;26.936;2023-02-28T04:49:37;99790.69;;;-0.33;100.0
64025;BME280;50266;57.446;26.936;2023-02-28T04:50:37;99800.89;;;-0.35;100.0
64025;BME280;50266;57.446;26.936;2023-02-28T04:51:37;99781.67;;;-0.35;100.0
64025;BME280;50266;57.446;26.936;2023-02-28T04:52:37;99799.28;;;-0.33;100.0
64025;BME280;50266;57.446;26.936;2023-02-28T04:53:37;99786.0;;;-0.33;100.0
64025;BME280;50266;57.446;26.936;2023-02-28T04:54:37;99788.83;;;-0.33;100.0
64025;BME280;50266;57.446;26.936;2023-02-28T04:55:37;99793.64;;;-0.31;100.0
64025;BME280;50266;57.446;26.936;2023-02-28T04:56:37;99770.11;;;-0.26;100.0
64025;BME280;50266;57.446;26.936;2023-02-28T04:57:37;99782.25;;;-0.3;100.0
64025;BME280;50266;57.446;26.936;2023-02-28T04:58:37;99784.31;;;-0.33;100.0
64025;BME280;50266;57.446;26.936;2023-02-28T04:59:37;99778.47;;;-0.29;100.0
64025;BME280;50266;57.446;26.936;2023-02-28T05:00:37;99775.91;;;-0.32;100.0
64025;BME280;50266;57.446;26.936;2023-02-28T05:01:37;99766.98;;;-0.31;100.0
64025;BME280;50266;57.446;26.936;2023-02-28T05:02:37;99768.34;;;-0.31;100.0
64025;BME280;50266;57.446;26.936;2023-02-28T05:03:40;99772.62;;;-0.34;100.0
64025;BME280;50266;57.446;26.936;2023-02-28T05:04:37;99772.98;;;-0.35;100.0
64025;BME280;50266;57.446;26.936;2023-02-28T05:05:37;99768.42;;;-0.32;100.0
64025;BME280;50266;57.446;26.936;2023-02-28T05:06:37;99778.57;;;-0.31;100.0
64025;BME280;50266;57.446;26.936;2023-02-28T05:07:37;99762.48;;;-0.29;100.0
64025;BME280;50266;57.446;26.936;2023-02-28T05:08:37;99766.52;;;-0.29;100.0
64025;BME280;50266;57.446;26.936;2023-02-28T05:09:37;99765.73;;;-0.28;100.0
64025;BME280;50266;57.446;26.936;2023-02-28T05:10:37;99743.55;;;-0.29;100.0
64025;BME280;50266;57.446;26.936;2023-02-28T05:11:37;99766.19;;;-0.26;100.0
64025;BME280;50266;57.446;26.936;2023-02-28T05:12:37;99752.83;;;-0.28;100.0
64025;BME280;50266;57.446;26.936;2023-02-28T05:13:37;99742.52;;;-0.29;100.0
64025;BME280;50266;57.446;26.936;2023-02-28T05:14:37;99745.88;;;-0.28;100.0
64025;BME280;50266;57.446;26.936;2023-02-28T05:15:37;99728.03;;;-0.29;100.0
64025;BME280;50266;57.446;26.936;2023-02-28T05:16:37;99735.05;;;-0.28;100.0
64025;BME280;50266;57.446;26.936;2023-02-28T05:17:38;99728.39;;;-0.3;100.0
64025;BME280;50266;57.446;26.936;2023-02-28T05:18:38;99722.06;;;-0.3;100.0
64025;BME280;50266;57.446;26.936;2023-02-28T05:19:38;99732.28;;;-0.31;100.0
64025;BME280;50266;57.446;26.936;2023-02-28T05:20:38;99728.38;;;-0.29;100.0
64025;BME280;50266;57.446;26.936;2023-02-28T05:21:39;99717.91;;;-0.28;100.0
64025;BME280;50266;57.446;26.936;2023-02-28T05:22:38;99725.95;;;-0.28;100.0
64025;BME280;50266;57.446;26.936;2023-02-28T05:23:38;99717.15;;;-0.25;100.0
64025;BME280;50266;57.446;26.936;2023-02-28T05:24:38;99721.66;;;-0.28;100.0
64025;BME280;50266;57.446;26.936;2023-02-28T05:25:38;99729.32;;;-0.24;100.0
64025;BME280;50266;57.446;26.936;2023-02-28T05:26:39;99724.38;;;-0.25;100.0
64025;BME280;50266;57.446;26.936;2023-02-28T05:27:38;99722.38;;;-0.25;100.0
64025;BME280;50266;57.446;26.936;2023-02-28T05:28:38;99733.38;;;-0.24;100.0
64025;BME280;50266;57.446;26.936;2023-02-28T05:29:38;99727.66;;;-0.23;100.0
64025;BME280;50266;57.446;26.936;2023-02-28T05:30:38;99730.2;;;-0.22;100.0
64025;BME280;50266;57.446;26.936;2023-02-28T05:31:38;99723.25;;;-0.2;100.0
64025;BME280;50266;57.446;26.936;2023-02-28T05:32:38;99724.12;;;-0.18;100.0
64025;BME280;50266;57.446;26.936;2023-02-28T05:33:38;99736.61;;;-0.21;100.0
64025;BME280;50266;57.446;26.936;2023-02-28T05:34:38;99722.7;;;-0.16;100.0
64025;BME280;50266;57.446;26.936;2023-02-28T05:35:38;99724.13;;;-0.16;100.0
64025;BME280;50266;57.446;26.936;2023-02-28T05:36:38;99742.88;;;-0.15;100.0
64025;BME280;50266;57.446;26.936;2023-02-28T05:37:38;99716.04;;;-0.17;100.0
64025;BME280;50266;57.446;26.936;2023-02-28T05:38:38;99725.41;;;-0.15;100.0
64025;BME280;50266;57.446;26.936;2023-02-28T05:39:38;99720.97;;;-0.16;100.0
64025;BME280;50266;57.446;26.936;2023-02-28T05:40:38;99711.38;;;-0.15;100.0
64025;BME280;50266;57.446;26.936;2023-02-28T05:41:39;99707.36;;;-0.16;100.0